sensor_id;sensor_type;location;lat;lon;timestamp;pressure;altitude;pressure_sealevel;temperature;humidity
31044;BME280;17710;52.520;13.352;2023-09-08T00:02:22;101894.38;;;24.99;51.05
31044;BME280;17710;52.520;13.352;2023-09-08T00:04:49;101883.06;;;24.94;51.68
31044;BME280;17710;52.520;13.352;2023-09-08T00:07:15;101878.84;;;24.90;51.43
31044;BME280;17710;52.520;13.352;2023-09-08T00:09:41;101883.16;;;24.92;51.51
31044;BME280;17710;52.520;13.352;2023-09-08T00:12:09;101880.34;;;24.94;51.50
31044;BME280;17710;52.520;13.352;2023-09-08T00:14:36;101878.19;;;24.86;51.58
31044;BME280;17710;52.520;13.352;2023-09-08T00:17:02;101881.19;;;24.94;51.61
31044;BME280;17710;52.520;13.352;2023-09-08T00:19:31;101876.94;;;24.79;52.48
31044;BME280;17710;52.520;13.352;2023-09-08T00:21:58;101883.06;;;24.70;53.11
31044;BME280;17710;52.520;13.352;2023-09-08T00:24:24;101874.75;;;24.49;53.45
31044;BME280;17710;52.520;13.352;2023-09-08T00:26:51;101869.03;;;24.65;52.78
31044;BME280;17710;52.520;13.352;2023-09-08T00:29:19;101868.00;;;24.55;53.22
31044;BME280;17710;52.520;13.352;2023-09-08T00:31:45;101872.50;;;24.67;52.11
31044;BME280;17710;52.520;13.352;2023-09-08T00:34:11;101868.69;;;24.70;52.08
31044;BME280;17710;52.520;13.352;2023-09-08T00:36:38;101870.50;;;24.69;51.83
31044;BME280;17710;52.520;13.352;2023-09-08T00:39:07;101871.72;;;24.54;52.09
31044;BME280;17710;52.520;13.352;2023-09-08T00:41:34;101873.09;;;24.59;51.98
31044;BME280;17710;52.520;13.352;2023-09-08T00:44:00;101868.22;;;24.41;52.54
31044;BME280;17710;52.520;13.352;2023-09-08T00:46:28;101863.53;;;24.67;51.25
31044;BME280;17710;52.520;13.352;2023-09-08T00:48:55;101869.66;;;24.69;51.16
31044;BME280;17710;52.520;13.352;2023-09-08T00:51:22;101871.84;;;24.63;51.28
31044;BME280;17710;52.520;13.352;2023-09-08T00:53:49;101873.19;;;24.58;51.51
31044;BME280;17710;52.520;13.352;2023-09-08T00:56:15;101870.94;;;24.41;51.84
31044;BME280;17710;52.520;13.352;2023-09-08T00:58:42;101870.22;;;24.50;51.89
31044;BME280;17710;52.520;13.352;2023-09-08T01:01:08;101869.47;;;24.48;51.82
31044;BME280;17710;52.520;13.352;2023-09-08T01:03:36;101861.41;;;24.35;52.58
31044;BME280;17710;52.520;13.352;2023-09-08T01:06:03;101870.75;;;24.31;52.61
31044;BME280;17710;52.520;13.352;2023-09-08T01:08:30;101865.81;;;24.25;52.91
31044;BME280;17710;52.520;13.352;2023-09-08T01:10:57;101874.03;;;24.11;54.06
31044;BME280;17710;52.520;13.352;2023-09-08T01:13:23;101864.47;;;24.31;53.30
31044;BME280;17710;52.520;13.352;2023-09-08T01:15:50;101865.31;;;24.20;54.05
31044;BME280;17710;52.520;13.352;2023-09-08T01:18:16;101862.13;;;24.02;54.53
31044;BME280;17710;52.520;13.352;2023-09-08T01:21:05;101861.09;;;24.03;54.61
31044;BME280;17710;52.520;13.352;2023-09-08T01:23:55;101857.44;;;24.04;54.19
31044;BME280;17710;52.520;13.352;2023-09-08T01:26:27;101853.25;;;24.00;53.81
31044;BME280;17710;52.520;13.352;2023-09-08T01:28:56;101847.97;;;23.99;53.42
31044;BME280;17710;52.520;13.352;2023-09-08T01:31:23;101851.38;;;24.13;52.65
31044;BME280;17710;52.520;13.352;2023-09-08T01:33:50;101854.56;;;24.18;52.52
31044;BME280;17710;52.520;13.352;2023-09-08T01:36:17;101845.69;;;24.29;51.69
31044;BME280;17710;52.520;13.352;2023-09-08T01:38:43;101849.81;;;24.22;51.74
31044;BME280;17710;52.520;13.352;2023-09-08T01:41:10;101847.78;;;24.26;51.24
31044;BME280;17710;52.520;13.352;2023-09-08T01:43:37;101847.81;;;24.37;51.15
31044;BME280;17710;52.520;13.352;2023-09-08T01:46:04;101846.06;;;24.36;51.03
31044;BME280;17710;52.520;13.352;2023-09-08T01:48:30;101850.97;;;24.31;50.97
31044;BME280;17710;52.520;13.352;2023-09-08T01:50:56;101842.28;;;24.38;50.69
31044;BME280;17710;52.520;13.352;2023-09-08T01:53:22;101841.22;;;24.41;50.60
31044;BME280;17710;52.520;13.352;2023-09-08T01:55:49;101844.09;;;24.27;51.01
31044;BME280;17710;52.520;13.352;2023-09-08T02:02:03;101839.28;;;24.19;51.22
31044;BME280;17710;52.520;13.352;2023-09-08T02:04:29;101833.78;;;24.08;51.68
31044;BME280;17710;52.520;13.352;2023-09-08T02:06:56;101835.66;;;24.18;51.35
31044;BME280;17710;52.520;13.352;2023-09-08T02:09:30;101830.44;;;24.04;51.67
31044;BME280;17710;52.520;13.352;2023-09-08T02:11:57;101831.09;;;24.08;51.46
31044;BME280;17710;52.520;13.352;2023-09-08T02:14:23;101828.97;;;24.00;51.62
31044;BME280;17710;52.520;13.352;2023-09-08T02:16:49;101830.78;;;24.00;51.75
31044;BME280;17710;52.520;13.352;2023-09-08T02:19:17;101824.88;;;23.95;52.06
31044;BME280;17710;52.520;13.352;2023-09-08T02:21:43;101829.97;;;23.87;52.00
31044;BME280;17710;52.520;13.352;2023-09-08T02:24:10;101831.19;;;24.06;51.70
31044;BME280;17710;52.520;13.352;2023-09-08T02:26:37;101833.78;;;24.08;51.91
31044;BME280;17710;52.520;13.352;2023-09-08T02:29:04;101834.41;;;24.11;51.72
31044;BME280;17710;52.520;13.352;2023-09-08T02:31:30;101826.19;;;24.13;51.60
31044;BME280;17710;52.520;13.352;2023-09-08T02:33:57;101833.13;;;24.04;51.83
31044;BME280;17710;52.520;13.352;2023-09-08T02:36:25;101832.91;;;24.07;51.78
31044;BME280;17710;52.520;13.352;2023-09-08T02:38:51;101821.47;;;24.04;51.80
31044;BME280;17710;52.520;13.352;2023-09-08T02:41:18;101829.81;;;24.01;51.98
31044;BME280;17710;52.520;13.352;2023-09-08T02:43:44;101828.75;;;23.91;52.07
31044;BME280;17710;52.520;13.352;2023-09-08T02:46:11;101824.06;;;23.81;52.71
31044;BME280;17710;52.520;13.352;2023-09-08T02:48:38;101825.94;;;23.68;53.13
31044;BME280;17710;52.520;13.352;2023-09-08T02:51:04;101822.44;;;23.79;52.94
31044;BME280;17710;52.520;13.352;2023-09-08T02:53:32;101818.06;;;23.65;53.06
31044;BME280;17710;52.520;13.352;2023-09-08T02:55:59;101817.97;;;23.67;53.48
31044;BME280;17710;52.520;13.352;2023-09-08T02:58:26;101814.47;;;23.77;52.91
31044;BME280;17710;52.520;13.352;2023-09-08T03:00:53;101818.88;;;23.78;52.75
31044;BME280;17710;52.520;13.352;2023-09-08T03:03:19;101821.53;;;23.67;53.36
31044;BME280;17710;52.520;13.352;2023-09-08T03:05:46;101811.53;;;23.80;53.02
31044;BME280;17710;52.520;13.352;2023-09-08T03:08:12;101814.00;;;23.60;53.66
31044;BME280;17710;52.520;13.352;2023-09-08T03:10:41;101817.44;;;23.62;53.77
31044;BME280;17710;52.520;13.352;2023-09-08T03:13:07;101812.59;;;23.54;53.65
31044;BME280;17710;52.520;13.352;2023-09-08T03:15:34;101812.06;;;23.24;54.70
31044;BME280;17710;52.520;13.352;2023-09-08T03:18:00;101805.81;;;23.49;54.46
31044;BME280;17710;52.520;13.352;2023-09-08T03:20:27;101801.72;;;23.56;53.89
31044;BME280;17710;52.520;13.352;2023-09-08T03:22:54;101812.19;;;23.48;54.26
31044;BME280;17710;52.520;13.352;2023-09-08T03:25:20;101803.53;;;23.42;54.37
31044;BME280;17710;52.520;13.352;2023-09-08T03:27:48;101802.13;;;23.62;53.79
31044;BME280;17710;52.520;13.352;2023-09-08T03:30:15;101809.94;;;23.29;54.54
31044;BME280;17710;52.520;13.352;2023-09-08T03:32:44;101806.25;;;23.42;54.49
31044;BME280;17710;52.520;13.352;2023-09-08T03:35:10;101812.84;;;23.26;55.12
31044;BME280;17710;52.520;13.352;2023-09-08T03:37:37;101815.50;;;23.38;54.70
31044;BME280;17710;52.520;13.352;2023-09-08T03:40:04;101814.66;;;23.25;55.17
31044;BME280;17710;52.520;13.352;2023-09-08T03:42:31;101813.13;;;23.47;54.23
31044;BME280;17710;52.520;13.352;2023-09-08T03:44:59;101813.09;;;23.10;55.45
31044;BME280;17710;52.520;13.352;2023-09-08T03:47:25;101817.38;;;23.25;55.03
31044;BME280;17710;52.520;13.352;2023-09-08T03:49:51;101820.53;;;22.94;55.95
31044;BME280;17710;52.520;13.352;2023-09-08T03:52:18;101821.38;;;23.07;55.42
31044;BME280;17710;52.520;13.352;2023-09-08T03:54:44;101817.03;;;23.17;55.19
31044;BME280;17710;52.520;13.352;2023-09-08T03:57:11;101816.84;;;23.08;55.61
31044;BME280;17710;52.520;13.352;2023-09-08T03:59:37;101817.38;;;23.00;55.58
31044;BME280;17710;52.520;13.352;2023-09-08T04:02:05;101819.56;;;23.08;55.45
31044;BME280;17710;52.520;13.352;2023-09-08T04:04:31;101822.59;;;23.03;55.78
31044;BME280;17710;52.520;13.352;2023-09-08T04:06:58;101826.84;;;23.18;55.37
31044;BME280;17710;52.520;13.352;2023-09-08T04:09:24;101823.53;;;23.02;56.01
31044;BME280;17710;52.520;13.352;2023-09-08T04:11:51;101829.47;;;23.07;55.74
31044;BME280;17710;52.520;13.352;2023-09-08T04:14:17;101817.19;;;23.16;55.46
31044;BME280;17710;52.520;13.352;2023-09-08T04:16:43;101816.84;;;23.08;55.95
31044;BME280;17710;52.520;13.352;2023-09-08T04:19:11;101819.00;;;23.15;55.52
31044;BME280;17710;52.520;13.352;2023-09-08T04:21:37;101813.63;;;23.02;55.87
31044;BME280;17710;52.520;13.352;2023-09-08T04:24:04;101816.63;;;23.11;55.58
31044;BME280;17710;52.520;13.352;2023-09-08T04:26:31;101824.84;;;23.09;55.76
31044;BME280;17710;52.520;13.352;2023-09-08T04:28:58;101818.34;;;22.99;55.98
31044;BME280;17710;52.520;13.352;2023-09-08T04:31:24;101817.81;;;23.07;55.96
31044;BME280;17710;52.520;13.352;2023-09-08T04:33:50;101827.41;;;22.98;56.18
31044;BME280;17710;52.520;13.352;2023-09-08T04:36:19;101827.75;;;23.06;56.25
31044;BME280;17710;52.520;13.352;2023-09-08T04:38:46;101840.69;;;23.01;56.27
31044;BME280;17710;52.520;13.352;2023-09-08T04:41:12;101827.63;;;23.08;55.90
31044;BME280;17710;52.520;13.352;2023-09-08T04:43:38;101831.03;;;22.72;57.19
31044;BME280;17710;52.520;13.352;2023-09-08T04:46:05;101834.44;;;22.88;56.59
31044;BME280;17710;52.520;13.352;2023-09-08T04:48:31;101832.78;;;22.98;56.37
31044;BME280;17710;52.520;13.352;2023-09-08T04:50:57;101823.13;;;22.95;56.54
31044;BME280;17710;52.520;13.352;2023-09-08T04:53:25;101830.66;;;23.16;55.65
31044;BME280;17710;52.520;13.352;2023-09-08T04:55:51;101834.22;;;23.16;55.53
31044;BME280;17710;52.520;13.352;2023-09-08T04:58:18;101828.81;;;23.16;55.79
31044;BME280;17710;52.520;13.352;2023-09-08T05:00:44;101827.63;;;23.20;55.26
31044;BME280;17710;52.520;13.352;2023-09-08T05:03:11;101829.97;;;23.25;55.18
31044;BME280;17710;52.520;13.352;2023-09-08T05:05:37;101825.91;;;23.19;55.79
31044;BME280;17710;52.520;13.352;2023-09-08T05:08:04;101823.94;;;23.34;55.06
31044;BME280;17710;52.520;13.352;2023-09-08T05:10:32;101836.66;;;23.32;55.21
31044;BME280;17710;52.520;13.352;2023-09-08T05:12:58;101832.13;;;23.32;55.06
31044;BME280;17710;52.520;13.352;2023-09-08T05:15:25;101828.03;;;23.39;54.76
31044;BME280;17710;52.520;13.352;2023-09-08T05:17:51;101838.06;;;23.25;55.21
31044;BME280;17710;52.520;13.352;2023-09-08T05:20:18;101826.53;;;23.35;54.96
31044;BME280;17710;52.520;13.352;2023-09-08T05:22:44;101831.59;;;23.53;54.38
31044;BME280;17710;52.520;13.352;2023-09-08T05:25:10;101831.16;;;23.59;54.07
31044;BME280;17710;52.520;13.352;2023-09-08T05:27:38;101837.41;;;23.47;54.42
31044;BME280;17710;52.520;13.352;2023-09-08T05:30:06;101829.75;;;23.40;54.75
31044;BME280;17710;52.520;13.352;2023-09-08T05:32:32;101828.81;;;23.29;54.87
31044;BME280;17710;52.520;13.352;2023-09-08T05:34:59;101834.50;;;23.37;54.61
31044;BME280;17710;52.520;13.352;2023-09-08T05:37:25;101834.81;;;23.58;54.24
31044;BME280;17710;52.520;13.352;2023-09-08T05:39:51;101834.53;;;23.50;54.37
31044;BME280;17710;52.520;13.352;2023-09-08T05:42:18;101841.31;;;23.55;54.38
31044;BME280;17710;52.520;13.352;2023-09-08T05:44:45;101830.59;;;23.66;53.86
31044;BME280;17710;52.520;13.352;2023-09-08T05:47:13;101841.69;;;23.74;53.70
31044;BME280;17710;52.520;13.352;2023-09-08T05:49:39;101836.66;;;23.94;52.95
31044;BME280;17710;52.520;13.352;2023-09-08T05:52:05;101829.19;;;23.97;52.44
31044;BME280;17710;52.520;13.352;2023-09-08T05:54:32;101843.22;;;24.02;52.88
31044;BME280;17710;52.520;13.352;2023-09-08T05:56:58;101840.53;;;23.90;53.25
31044;BME280;17710;52.520;13.352;2023-09-08T05:59:25;101836.19;;;23.76;53.42
31044;BME280;17710;52.520;13.352;2023-09-08T06:01:52;101835.28;;;23.88;52.94
31044;BME280;17710;52.520;13.352;2023-09-08T06:04:19;101832.16;;;24.05;52.54
31044;BME280;17710;52.520;13.352;2023-09-08T06:06:45;101837.63;;;24.16;52.11
31044;BME280;17710;52.520;13.352;2023-09-08T06:09:12;101834.28;;;24.13;52.08
31044;BME280;17710;52.520;13.352;2023-09-08T06:11:40;101837.94;;;24.25;51.92
31044;BME280;17710;52.520;13.352;2023-09-08T06:14:06;101835.41;;;24.34;51.83
31044;BME280;17710;52.520;13.352;2023-09-08T06:16:33;101837.19;;;24.46;51.42
31044;BME280;17710;52.520;13.352;2023-09-08T06:19:02;101834.22;;;24.49;50.85
31044;BME280;17710;52.520;13.352;2023-09-08T06:21:29;101832.09;;;24.42;50.80
31044;BME280;17710;52.520;13.352;2023-09-08T06:23:55;101838.66;;;24.61;50.54
31044;BME280;17710;52.520;13.352;2023-09-08T06:26:22;101829.00;;;24.81;50.06
31044;BME280;17710;52.520;13.352;2023-09-08T06:28:48;101827.66;;;24.76;50.15
31044;BME280;17710;52.520;13.352;2023-09-08T06:31:15;101826.84;;;24.86;49.80
31044;BME280;17710;52.520;13.352;2023-09-08T06:33:41;101831.72;;;24.81;49.78
31044;BME280;17710;52.520;13.352;2023-09-08T06:36:09;101829.53;;;24.86;49.97
31044;BME280;17710;52.520;13.352;2023-09-08T06:38:35;101828.59;;;25.10;49.17
31044;BME280;17710;52.520;13.352;2023-09-08T06:41:08;101828.34;;;25.01;49.14
31044;BME280;17710;52.520;13.352;2023-09-08T06:43:35;101826.28;;;25.05;49.17
31044;BME280;17710;52.520;13.352;2023-09-08T06:46:01;101830.34;;;25.11;48.93
31044;BME280;17710;52.520;13.352;2023-09-08T06:48:29;101825.66;;;25.24;48.97
31044;BME280;17710;52.520;13.352;2023-09-08T06:50:55;101826.38;;;25.48;48.56
31044;BME280;17710;52.520;13.352;2023-09-08T06:53:23;101819.50;;;25.77;47.30
31044;BME280;17710;52.520;13.352;2023-09-08T06:55:50;101821.13;;;26.01;46.96
31044;BME280;17710;52.520;13.352;2023-09-08T06:58:16;101822.91;;;26.23;46.27
31044;BME280;17710;52.520;13.352;2023-09-08T07:00:43;101820.09;;;26.13;46.09
31044;BME280;17710;52.520;13.352;2023-09-08T07:03:09;101820.81;;;26.26;45.87
31044;BME280;17710;52.520;13.352;2023-09-08T07:05:36;101819.41;;;26.43;45.60
31044;BME280;17710;52.520;13.352;2023-09-08T07:08:02;101825.72;;;26.32;45.97
31044;BME280;17710;52.520;13.352;2023-09-08T07:10:30;101829.63;;;26.39;46.12
31044;BME280;17710;52.520;13.352;2023-09-08T07:12:56;101827.44;;;26.33;45.94
31044;BME280;17710;52.520;13.352;2023-09-08T07:15:23;101832.69;;;26.25;46.47
31044;BME280;17710;52.520;13.352;2023-09-08T07:17:49;101826.16;;;26.69;45.33
31044;BME280;17710;52.520;13.352;2023-09-08T07:20:16;101828.91;;;26.79;45.28
31044;BME280;17710;52.520;13.352;2023-09-08T07:22:43;101828.75;;;26.71;45.16
31044;BME280;17710;52.520;13.352;2023-09-08T07:25:09;101830.25;;;26.64;45.01
31044;BME280;17710;52.520;13.352;2023-09-08T07:27:37;101833.69;;;26.66;44.72
31044;BME280;17710;52.520;13.352;2023-09-08T07:30:04;101822.25;;;26.62;44.92
31044;BME280;17710;52.520;13.352;2023-09-08T07:32:31;101831.81;;;26.87;44.43
31044;BME280;17710;52.520;13.352;2023-09-08T07:34:58;101829.66;;;26.60;45.45
31044;BME280;17710;52.520;13.352;2023-09-08T07:37:24;101828.81;;;27.01;44.39
31044;BME280;17710;52.520;13.352;2023-09-08T07:39:51;101825.31;;;27.10;44.13
31044;BME280;17710;52.520;13.352;2023-09-08T07:42:17;101824.47;;;27.19;43.74
31044;BME280;17710;52.520;13.352;2023-09-08T07:44:45;101829.94;;;27.29;43.23
31044;BME280;17710;52.520;13.352;2023-09-08T07:47:12;101835.09;;;27.32;43.69
31044;BME280;17710;52.520;13.352;2023-09-08T07:49:38;101832.59;;;27.50;42.78
31044;BME280;17710;52.520;13.352;2023-09-08T07:52:05;101844.09;;;27.63;42.15
31044;BME280;17710;52.520;13.352;2023-09-08T07:54:32;101829.72;;;27.91;41.81
31044;BME280;17710;52.520;13.352;2023-09-08T07:56:59;101832.88;;;28.06;41.11
31044;BME280;17710;52.520;13.352;2023-09-08T07:59:25;101841.94;;;28.26;40.95
31044;BME280;17710;52.520;13.352;2023-09-08T08:01:53;101845.69;;;28.34;40.02
31044;BME280;17710;52.520;13.352;2023-09-08T08:04:19;101841.22;;;28.43;40.11
31044;BME280;17710;52.520;13.352;2023-09-08T08:06:46;101849.63;;;28.69;39.87
31044;BME280;17710;52.520;13.352;2023-09-08T08:09:13;101847.78;;;28.98;39.45
31044;BME280;17710;52.520;13.352;2023-09-08T08:11:39;101842.63;;;29.42;38.05
31044;BME280;17710;52.520;13.352;2023-09-08T08:14:06;101847.09;;;29.60;37.66
31044;BME280;17710;52.520;13.352;2023-09-08T08:16:33;101838.25;;;29.58;38.04
31044;BME280;17710;52.520;13.352;2023-09-08T08:19:01;101834.16;;;29.45;38.48
31044;BME280;17710;52.520;13.352;2023-09-08T08:21:28;101833.59;;;29.68;38.06
31044;BME280;17710;52.520;13.352;2023-09-08T08:23:55;101832.66;;;29.60;37.80
31044;BME280;17710;52.520;13.352;2023-09-08T08:26:21;101835.63;;;29.66;38.17
31044;BME280;17710;52.520;13.352;2023-09-08T08:28:52;101832.34;;;29.63;37.76
31044;BME280;17710;52.520;13.352;2023-09-08T08:31:19;101823.31;;;29.62;37.41
31044;BME280;17710;52.520;13.352;2023-09-08T08:33:45;101826.97;;;29.53;36.96
31044;BME280;17710;52.520;13.352;2023-09-08T08:36:13;101821.31;;;29.64;37.40
31044;BME280;17710;52.520;13.352;2023-09-08T08:38:40;101825.63;;;29.57;37.18
31044;BME280;17710;52.520;13.352;2023-09-08T08:41:06;101819.09;;;29.50;37.61
31044;BME280;17710;52.520;13.352;2023-09-08T08:43:33;101823.09;;;29.73;37.54
31044;BME280;17710;52.520;13.352;2023-09-08T08:46:00;101819.06;;;30.05;36.97
31044;BME280;17710;52.520;13.352;2023-09-08T08:48:29;101824.09;;;30.00;36.58
31044;BME280;17710;52.520;13.352;2023-09-08T08:50:56;101825.81;;;30.01;35.99
31044;BME280;17710;52.520;13.352;2023-09-08T08:53:25;101815.34;;;29.79;36.86
31044;BME280;17710;52.520;13.352;2023-09-08T08:55:53;101811.25;;;29.65;37.04
31044;BME280;17710;52.520;13.352;2023-09-08T08:58:21;101811.66;;;29.88;36.44
31044;BME280;17710;52.520;13.352;2023-09-08T09:00:51;101815.91;;;30.00;36.54
31044;BME280;17710;52.520;13.352;2023-09-08T09:03:18;101813.91;;;30.02;36.55
31044;BME280;17710;52.520;13.352;2023-09-08T09:05:46;101808.56;;;29.83;37.03
31044;BME280;17710;52.520;13.352;2023-09-08T09:08:13;101809.66;;;29.90;36.38
31044;BME280;17710;52.520;13.352;2023-09-08T09:10:42;101815.31;;;30.06;36.13
31044;BME280;17710;52.520;13.352;2023-09-08T09:13:08;101815.25;;;29.70;36.44
31044;BME280;17710;52.520;13.352;2023-09-08T09:15:35;101816.84;;;30.26;36.01
31044;BME280;17710;52.520;13.352;2023-09-08T09:18:02;101806.34;;;30.49;35.34
31044;BME280;17710;52.520;13.352;2023-09-08T09:20:29;101812.81;;;30.30;35.46
31044;BME280;17710;52.520;13.352;2023-09-08T09:22:55;101810.63;;;30.16;35.82
31044;BME280;17710;52.520;13.352;2023-09-08T09:25:22;101806.03;;;30.34;35.84
31044;BME280;17710;52.520;13.352;2023-09-08T09:27:52;101812.84;;;30.74;35.10
31044;BME280;17710;52.520;13.352;2023-09-08T09:30:19;101804.22;;;30.61;35.62
31044;BME280;17710;52.520;13.352;2023-09-08T09:32:45;101815.78;;;30.80;34.99
31044;BME280;17710;52.520;13.352;2023-09-08T09:35:14;101804.66;;;30.74;35.13
31044;BME280;17710;52.520;13.352;2023-09-08T09:37:41;101810.50;;;30.79;34.97
31044;BME280;17710;52.520;13.352;2023-09-08T09:40:08;101805.94;;;30.62;35.14
31044;BME280;17710;52.520;13.352;2023-09-08T09:42:37;101803.16;;;30.54;35.00
31044;BME280;17710;52.520;13.352;2023-09-08T09:45:06;101799.78;;;30.42;35.36
31044;BME280;17710;52.520;13.352;2023-09-08T09:47:34;101793.69;;;30.66;35.31
31044;BME280;17710;52.520;13.352;2023-09-08T09:50:00;101792.66;;;31.10;34.85
31044;BME280;17710;52.520;13.352;2023-09-08T09:52:27;101795.59;;;30.99;34.58
31044;BME280;17710;52.520;13.352;2023-09-08T09:54:57;101791.50;;;30.95;34.67
31044;BME280;17710;52.520;13.352;2023-09-08T09:57:25;101792.03;;;30.99;35.10
31044;BME280;17710;52.520;13.352;2023-09-08T09:59:53;101797.03;;;30.77;35.14
31044;BME280;17710;52.520;13.352;2023-09-08T10:02:21;101788.06;;;30.93;34.62
31044;BME280;17710;52.520;13.352;2023-09-08T10:04:49;101791.44;;;30.87;34.43
31044;BME280;17710;52.520;13.352;2023-09-08T10:07:16;101790.28;;;31.15;34.24
31044;BME280;17710;52.520;13.352;2023-09-08T10:09:43;101788.72;;;31.13;34.28
31044;BME280;17710;52.520;13.352;2023-09-08T10:12:13;101781.38;;;31.13;33.61
31044;BME280;17710;52.520;13.352;2023-09-08T10:14:41;101783.81;;;31.24;33.94
31044;BME280;17710;52.520;13.352;2023-09-08T10:17:12;101780.84;;;31.52;33.50
31044;BME280;17710;52.520;13.352;2023-09-08T10:19:44;101778.91;;;31.28;33.93
31044;BME280;17710;52.520;13.352;2023-09-08T10:22:15;101781.53;;;31.12;33.60
31044;BME280;17710;52.520;13.352;2023-09-08T10:24:46;101772.88;;;31.16;33.70
31044;BME280;17710;52.520;13.352;2023-09-08T10:27:12;101770.16;;;31.16;33.63
31044;BME280;17710;52.520;13.352;2023-09-08T10:29:39;101782.13;;;31.23;33.72
31044;BME280;17710;52.520;13.352;2023-09-08T10:32:07;101768.63;;;31.22;33.64
31044;BME280;17710;52.520;13.352;2023-09-08T10:34:35;101772.44;;;31.03;33.78
31044;BME280;17710;52.520;13.352;2023-09-08T10:37:18;101764.34;;;31.19;33.80
31044;BME280;17710;52.520;13.352;2023-09-08T10:39:45;101768.88;;;31.37;33.66
31044;BME280;17710;52.520;13.352;2023-09-08T10:42:23;101758.63;;;31.39;32.89
31044;BME280;17710;52.520;13.352;2023-09-08T10:45:01;101759.31;;;31.41;33.36
31044;BME280;17710;52.520;13.352;2023-09-08T10:47:41;101757.19;;;31.60;32.78
31044;BME280;17710;52.520;13.352;2023-09-08T10:50:26;101750.50;;;31.55;32.58
31044;BME280;17710;52.520;13.352;2023-09-08T10:53:06;101756.81;;;31.55;32.89
31044;BME280;17710;52.520;13.352;2023-09-08T10:55:37;101758.31;;;31.42;32.98
31044;BME280;17710;52.520;13.352;2023-09-08T10:58:06;101763.59;;;31.43;33.44
31044;BME280;17710;52.520;13.352;2023-09-08T11:00:47;101751.47;;;31.46;33.51
31044;BME280;17710;52.520;13.352;2023-09-08T11:03:26;101758.84;;;31.53;33.23
31044;BME280;17710;52.520;13.352;2023-09-08T11:05:54;101753.72;;;31.58;33.08
31044;BME280;17710;52.520;13.352;2023-09-08T11:08:22;101745.00;;;31.47;32.89
31044;BME280;17710;52.520;13.352;2023-09-08T11:10:49;101747.69;;;31.39;32.47
31044;BME280;17710;52.520;13.352;2023-09-08T11:13:16;101739.03;;;31.51;32.35
31044;BME280;17710;52.520;13.352;2023-09-08T11:15:42;101746.38;;;31.43;32.44
31044;BME280;17710;52.520;13.352;2023-09-08T11:18:09;101743.31;;;31.54;32.71
31044;BME280;17710;52.520;13.352;2023-09-08T11:20:35;101745.69;;;31.49;32.85
31044;BME280;17710;52.520;13.352;2023-09-08T11:23:03;101743.59;;;31.35;32.27
31044;BME280;17710;52.520;13.352;2023-09-08T11:25:33;101749.28;;;31.49;32.26
31044;BME280;17710;52.520;13.352;2023-09-08T11:28:00;101738.88;;;31.53;32.38
31044;BME280;17710;52.520;13.352;2023-09-08T11:30:28;101742.81;;;31.50;32.55
31044;BME280;17710;52.520;13.352;2023-09-08T11:32:54;101744.63;;;31.34;32.49
31044;BME280;17710;52.520;13.352;2023-09-08T11:35:27;101740.91;;;31.51;32.33
31044;BME280;17710;52.520;13.352;2023-09-08T11:37:59;101736.34;;;31.59;32.87
31044;BME280;17710;52.520;13.352;2023-09-08T11:40:27;101727.72;;;31.88;32.82
31044;BME280;17710;52.520;13.352;2023-09-08T11:42:55;101732.63;;;31.85;31.99
31044;BME280;17710;52.520;13.352;2023-09-08T11:45:23;101728.72;;;31.87;32.02
31044;BME280;17710;52.520;13.352;2023-09-08T11:47:49;101736.59;;;31.82;31.66
31044;BME280;17710;52.520;13.352;2023-09-08T11:50:18;101731.44;;;31.79;31.34
31044;BME280;17710;52.520;13.352;2023-09-08T11:52:46;101727.16;;;31.85;30.73
31044;BME280;17710;52.520;13.352;2023-09-08T11:55:13;101715.94;;;31.96;30.58
31044;BME280;17710;52.520;13.352;2023-09-08T11:57:40;101717.31;;;32.16;30.79
31044;BME280;17710;52.520;13.352;2023-09-08T12:00:10;101716.28;;;32.25;30.91
31044;BME280;17710;52.520;13.352;2023-09-08T12:02:41;101708.94;;;32.34;30.66
31044;BME280;17710;52.520;13.352;2023-09-08T12:05:11;101708.06;;;32.09;31.25
31044;BME280;17710;52.520;13.352;2023-09-08T12:07:37;101703.13;;;32.21;30.59
31044;BME280;17710;52.520;13.352;2023-09-08T12:10:07;101704.31;;;32.18;30.52
31044;BME280;17710;52.520;13.352;2023-09-08T12:12:36;101698.47;;;32.05;30.60
31044;BME280;17710;52.520;13.352;2023-09-08T12:15:09;101698.81;;;31.86;30.98
31044;BME280;17710;52.520;13.352;2023-09-08T12:17:46;101702.06;;;32.30;30.38
31044;BME280;17710;52.520;13.352;2023-09-08T12:20:13;101698.19;;;32.16;30.31
31044;BME280;17710;52.520;13.352;2023-09-08T12:22:47;101693.53;;;32.25;30.19
31044;BME280;17710;52.520;13.352;2023-09-08T12:25:14;101688.22;;;32.48;30.48
31044;BME280;17710;52.520;13.352;2023-09-08T12:27:44;101691.44;;;32.59;29.38
31044;BME280;17710;52.520;13.352;2023-09-08T12:30:16;101685.66;;;32.30;29.44
31044;BME280;17710;52.520;13.352;2023-09-08T12:32:45;101680.00;;;32.56;30.15
31044;BME280;17710;52.520;13.352;2023-09-08T12:35:12;101676.75;;;32.68;29.27
31044;BME280;17710;52.520;13.352;2023-09-08T12:37:39;101679.25;;;32.78;29.42
31044;BME280;17710;52.520;13.352;2023-09-08T12:40:06;101676.69;;;32.76;29.34
31044;BME280;17710;52.520;13.352;2023-09-08T12:42:32;101674.63;;;32.78;29.15
31044;BME280;17710;52.520;13.352;2023-09-08T12:44:59;101673.44;;;32.81;29.25
31044;BME280;17710;52.520;13.352;2023-09-08T12:47:27;101671.91;;;32.70;29.02